createdAt,value
2023-05-06T00:00:06.478Z,20.40
2023-05-06T00:02:41.879Z,23.17
2023-05-06T00:05:10.880Z,22.30
2023-05-06T00:07:39.729Z,23.03
2023-05-06T00:10:08.625Z,25.10
2023-05-06T00:12:37.014Z,25.23
2023-05-06T00:15:06.545Z,22.87
2023-05-06T00:17:34.935Z,19.37
2023-05-06T00:20:05.147Z,20.10
2023-05-06T00:22:33.659Z,19.63
2023-05-06T00:25:02.100Z,18.10
2023-05-06T00:27:30.504Z,19.83
2023-05-06T00:29:59.219Z,18.77
2023-05-06T00:32:27.612Z,18.00
2023-05-06T00:34:55.936Z,18.23
2023-05-06T00:37:25.726Z,18.43
2023-05-06T00:39:54.480Z,16.83
2023-05-06T00:42:23.321Z,19.13
2023-05-06T00:44:51.759Z,18.30
2023-05-06T00:47:22.154Z,16.60
2023-05-06T00:49:51.946Z,16.20
2023-05-06T00:52:21.623Z,16.47
2023-05-06T00:54:51.871Z,17.63
2023-05-06T00:57:20.299Z,18.10
2023-05-06T00:59:48.612Z,18.13
2023-05-06T01:02:17.563Z,17.73
2023-05-06T01:04:45.962Z,17.53
2023-05-06T01:07:27.299Z,17.30
2023-05-06T01:10:01.803Z,19.50
2023-05-06T01:12:35.163Z,21.90
2023-05-06T01:15:10.034Z,21.17
2023-05-06T01:17:45.993Z,24.97
2023-05-06T01:20:15.436Z,20.80
2023-05-06T01:22:43.847Z,26.57
2023-05-06T01:25:20.888Z,21.87
2023-05-06T01:27:49.831Z,22.93
2023-05-06T01:30:20.602Z,24.00
2023-05-06T01:33:01.962Z,24.20
2023-05-06T01:35:37.446Z,25.40
2023-05-06T01:38:16.999Z,23.13
2023-05-06T01:40:54.195Z,22.37
2023-05-06T01:43:24.798Z,22.20
2023-05-06T01:45:55.492Z,24.67
2023-05-06T01:48:25.894Z,22.60
2023-05-06T01:50:54.483Z,24.47
2023-05-06T01:53:23.144Z,27.17
2023-05-06T01:55:52.932Z,22.80
2023-05-06T01:58:21.447Z,27.90
2023-05-06T02:00:49.801Z,22.03
2023-05-06T02:03:18.237Z,27.60
2023-05-06T02:05:46.928Z,24.40
2023-05-06T02:08:15.447Z,24.87
2023-05-06T02:10:46.064Z,26.07
2023-05-06T02:13:16.087Z,26.20
2023-05-06T02:15:44.499Z,24.50
2023-05-06T02:18:17.181Z,27.33
2023-05-06T02:20:45.510Z,29.47
2023-05-06T02:23:17.659Z,28.83
2023-05-06T02:25:47.656Z,28.07
2023-05-06T02:28:17.330Z,26.57
2023-05-06T02:30:45.828Z,26.27
2023-05-06T02:33:14.286Z,29.63
2023-05-06T02:35:42.798Z,26.20
2023-05-06T02:38:11.184Z,27.10
2023-05-06T02:40:39.553Z,29.70
2023-05-06T02:43:08.165Z,27.57
2023-05-06T02:45:37.983Z,29.90
2023-05-06T02:48:06.904Z,29.63
2023-05-06T02:50:36.098Z,29.50
2023-05-06T02:53:04.632Z,26.60
2023-05-06T02:55:33.122Z,28.20
2023-05-06T02:58:01.580Z,29.17
2023-05-06T03:00:29.932Z,26.63
2023-05-06T03:02:59.800Z,26.70
2023-05-06T03:05:28.465Z,27.27
2023-05-06T03:07:57.704Z,25.00
2023-05-06T03:10:26.312Z,26.27
2023-05-06T03:12:56.761Z,26.93
2023-05-06T03:15:25.557Z,28.63
2023-05-06T03:17:55.380Z,28.80
2023-05-06T03:20:28.797Z,27.13
2023-05-06T03:22:58.680Z,25.57
2023-05-06T03:25:28.039Z,26.07
2023-05-06T03:27:57.150Z,28.20
2023-05-06T03:30:25.538Z,30.03
2023-05-06T03:32:57.249Z,22.70
2023-05-06T03:35:32.841Z,24.77
2023-05-06T03:38:02.716Z,21.60
2023-05-06T03:40:39.560Z,24.00
2023-05-06T03:43:08.601Z,21.30
2023-05-06T03:45:38.006Z,21.60
2023-05-06T03:48:07.541Z,24.67
2023-05-06T03:50:40.968Z,20.90
2023-05-06T03:53:09.580Z,19.97
2023-05-06T03:55:41.000Z,18.07
2023-05-06T03:58:10.468Z,21.33
2023-05-06T04:00:39.035Z,20.57
2023-05-06T04:03:08.419Z,18.10
2023-05-06T04:05:49.824Z,18.20
2023-05-06T04:08:20.808Z,17.63
2023-05-06T04:10:49.109Z,18.30
2023-05-06T04:13:26.132Z,22.40
2023-05-06T04:15:55.189Z,17.70
2023-05-06T04:18:27.960Z,18.77
2023-05-06T04:21:03.206Z,17.23
2023-05-06T04:23:34.038Z,15.67
2023-05-06T04:26:03.740Z,15.00
2023-05-06T04:28:34.347Z,16.40
2023-05-06T04:31:03.128Z,14.23
2023-05-06T04:33:42.078Z,15.63
2023-05-06T04:36:17.688Z,14.37
2023-05-06T04:38:57.101Z,14.93
2023-05-06T04:41:26.137Z,13.40
2023-05-06T04:43:56.134Z,14.20
2023-05-06T04:46:26.166Z,12.10
2023-05-06T04:48:56.926Z,14.17
2023-05-06T04:51:27.106Z,13.77
2023-05-06T04:53:56.078Z,11.93
2023-05-06T04:56:24.647Z,14.87
2023-05-06T04:58:52.989Z,13.97
2023-05-06T05:01:21.327Z,12.50
2023-05-06T05:03:49.848Z,12.57
2023-05-06T05:06:21.195Z,12.63
2023-05-06T05:08:51.577Z,14.37
2023-05-06T05:11:20.209Z,13.50
2023-05-06T05:13:48.592Z,13.60
2023-05-06T05:16:17.431Z,12.50
2023-05-06T05:18:46.773Z,13.17
2023-05-06T05:21:21.146Z,11.70
2023-05-06T05:23:51.537Z,12.53
2023-05-06T05:26:20.467Z,11.93
2023-05-06T05:28:52.367Z,14.50
2023-05-06T05:31:20.750Z,13.67
2023-05-06T05:33:50.125Z,13.37
2023-05-06T05:36:21.679Z,13.60
2023-05-06T05:38:54.742Z,14.67
2023-05-06T05:41:27.003Z,14.70
2023-05-06T05:43:56.536Z,14.67
2023-05-06T05:46:25.784Z,17.63
2023-05-06T05:48:54.239Z,15.47
2023-05-06T05:51:24.186Z,13.40
2023-05-06T05:53:54.847Z,13.00
2023-05-06T05:56:25.361Z,13.90
2023-05-06T05:58:54.204Z,16.43
2023-05-06T06:01:22.533Z,16.17
2023-05-06T06:03:51.617Z,13.57
2023-05-06T06:06:20.192Z,12.50
2023-05-06T06:08:49.258Z,13.00
2023-05-06T06:11:19.671Z,12.73
2023-05-06T06:13:47.993Z,15.70
2023-05-06T06:16:16.904Z,11.60
2023-05-06T06:18:45.392Z,10.87
2023-05-06T06:21:13.893Z,12.60
2023-05-06T06:23:42.596Z,12.17
2023-05-06T06:26:12.422Z,10.73
2023-05-06T06:28:44.670Z,11.97
2023-05-06T06:31:13.490Z,10.97
2023-05-06T06:33:41.771Z,16.27
2023-05-06T06:36:10.737Z,13.57
2023-05-06T06:38:40.153Z,10.30
2023-05-06T06:41:09.097Z,9.03
2023-05-06T06:43:37.390Z,9.63
2023-05-06T06:46:19.378Z,8.50
2023-05-06T06:48:48.094Z,9.27
2023-05-06T06:51:16.355Z,10.30
2023-05-06T06:53:44.713Z,8.50
2023-05-06T06:56:13.953Z,10.33
2023-05-06T06:58:42.654Z,7.80
2023-05-06T07:01:11.714Z,6.73
2023-05-06T07:03:41.546Z,6.03
2023-05-06T07:06:10.025Z,7.23
2023-05-06T07:08:38.521Z,6.10
2023-05-06T07:11:07.051Z,5.43
2023-05-06T07:13:35.426Z,6.23
2023-05-06T07:16:03.793Z,5.20
2023-05-06T07:18:32.157Z,5.70
2023-05-06T07:21:01.989Z,5.37
2023-05-06T07:23:32.065Z,5.33
2023-05-06T07:26:00.721Z,5.07
2023-05-06T07:28:29.033Z,5.67
2023-05-06T07:30:57.476Z,4.97
2023-05-06T07:33:25.820Z,6.50
2023-05-06T07:35:54.595Z,5.17
2023-05-06T07:38:24.630Z,3.97
2023-05-06T07:40:53.066Z,6.17
2023-05-06T07:43:22.628Z,4.40
2023-05-06T07:45:51.024Z,4.43
2023-05-06T07:48:20.344Z,4.33
2023-05-06T07:50:48.689Z,6.87
2023-05-06T07:53:17.095Z,5.63
2023-05-06T07:55:46.878Z,5.00
2023-05-06T07:58:15.271Z,4.73
2023-05-06T08:00:43.595Z,4.23
2023-05-06T08:03:12.077Z,4.40
2023-05-06T08:05:40.545Z,3.67
2023-05-06T08:08:08.815Z,4.30
2023-05-06T08:10:37.162Z,4.50
2023-05-06T08:13:06.925Z,3.80
2023-05-06T08:15:35.263Z,4.57
2023-05-06T08:18:13.846Z,4.30
2023-05-06T08:20:49.788Z,5.03
2023-05-06T08:23:18.143Z,5.70
2023-05-06T08:25:47.306Z,3.53
2023-05-06T08:28:17.068Z,4.40
2023-05-06T08:30:47.713Z,5.50
2023-05-06T08:33:16.234Z,3.47
2023-05-06T08:35:44.935Z,3.83
2023-05-06T08:38:13.380Z,5.27
2023-05-06T08:40:44.567Z,3.60
2023-05-06T08:43:22.040Z,3.60
2023-05-06T08:45:51.812Z,2.90
2023-05-06T08:48:23.159Z,3.80
2023-05-06T08:50:53.414Z,3.53
2023-05-06T08:53:21.949Z,3.03
2023-05-06T08:55:52.856Z,3.50
2023-05-06T08:58:23.952Z,3.73
2023-05-06T09:00:52.597Z,3.20
2023-05-06T09:03:21.195Z,3.00
2023-05-06T09:05:49.714Z,3.40
2023-05-06T09:08:17.996Z,2.67
2023-05-06T09:10:47.370Z,3.70
2023-05-06T09:13:17.066Z,3.13
2023-05-06T09:15:48.711Z,3.77
2023-05-06T09:18:17.650Z,2.50
2023-05-06T09:20:47.148Z,2.60
2023-05-06T09:23:17.931Z,3.10
2023-05-06T09:25:49.895Z,2.70
2023-05-06T09:28:18.483Z,2.70
2023-05-06T09:30:48.609Z,3.10
2023-05-06T09:33:17.667Z,2.50
2023-05-06T09:35:46.146Z,2.40
2023-05-06T09:38:14.509Z,1.93
2023-05-06T09:40:42.848Z,2.30
2023-05-06T09:43:12.901Z,5.03
2023-05-06T09:45:41.933Z,3.30
2023-05-06T09:48:11.978Z,1.83
2023-05-06T09:50:41.307Z,1.57
2023-05-06T09:53:12.182Z,2.03
2023-05-06T09:55:42.312Z,2.00
2023-05-06T09:58:11.175Z,2.03
2023-05-06T10:00:40.808Z,3.10
2023-05-06T10:03:09.870Z,2.47
2023-05-06T10:05:40.401Z,5.60
2023-05-06T10:08:10.104Z,1.70
2023-05-06T10:10:41.448Z,2.47
2023-05-06T10:13:09.999Z,1.60
2023-05-06T10:15:39.743Z,1.70
2023-05-06T10:18:10.508Z,2.80
2023-05-06T10:20:42.437Z,1.67
2023-05-06T10:23:20.577Z,1.90
2023-05-06T10:25:52.786Z,1.83
2023-05-06T10:28:26.579Z,2.00
2023-05-06T10:31:00.309Z,6.17
2023-05-06T10:33:29.528Z,6.33
2023-05-06T10:36:14.768Z,5.50
2023-05-06T10:38:44.840Z,5.33
2023-05-06T10:41:14.827Z,6.13
2023-05-06T10:43:45.371Z,5.60
2023-05-06T10:46:17.256Z,3.77
2023-05-06T10:49:20.700Z,6.23
2023-05-06T10:52:12.086Z,6.77
2023-05-06T10:54:51.285Z,5.53
2023-05-06T10:57:20.912Z,3.20
2023-05-06T10:59:50.459Z,6.10
2023-05-06T11:02:20.972Z,3.90
2023-05-06T11:04:53.338Z,3.13
2023-05-06T11:07:26.258Z,3.80
2023-05-06T11:09:59.029Z,2.70
2023-05-06T11:12:46.797Z,1.90
2023-05-06T11:15:26.201Z,1.90
2023-05-06T11:17:56.014Z,1.90
2023-05-06T11:20:26.635Z,2.53
2023-05-06T11:22:56.402Z,1.47
2023-05-06T11:25:41.163Z,1.90
2023-05-06T11:28:11.425Z,1.50
2023-05-06T11:30:42.761Z,2.40
2023-05-06T11:33:18.616Z,1.50
2023-05-06T11:35:47.167Z,1.40
2023-05-06T11:38:16.922Z,1.63
2023-05-06T11:40:45.392Z,1.90
2023-05-06T11:43:14.269Z,1.70
2023-05-06T11:45:44.068Z,1.50
2023-05-06T11:48:15.901Z,5.00
2023-05-06T11:50:47.754Z,1.67
2023-05-06T11:53:20.100Z,1.73
2023-05-06T11:55:49.761Z,1.93
2023-05-06T11:58:19.878Z,2.93
2023-05-06T12:00:51.459Z,1.80
2023-05-06T12:03:20.506Z,2.00
2023-05-06T12:05:49.839Z,1.40
2023-05-06T12:08:27.362Z,2.17
2023-05-06T12:10:59.432Z,1.17
2023-05-06T12:13:28.820Z,4.73
2023-05-06T12:15:59.209Z,1.73
2023-05-06T12:18:28.530Z,2.17
2023-05-06T12:20:57.344Z,2.37
2023-05-06T12:23:27.146Z,1.00
2023-05-06T12:26:03.973Z,1.10
2023-05-06T12:28:33.608Z,1.10
2023-05-06T12:31:02.315Z,1.27
2023-05-06T12:33:45.358Z,1.37
2023-05-06T12:36:14.095Z,1.47
2023-05-06T12:38:53.248Z,1.30
2023-05-06T12:41:21.935Z,1.50
2023-05-06T12:43:50.808Z,1.10
2023-05-06T12:46:19.552Z,3.37
2023-05-06T12:48:58.764Z,1.90
2023-05-06T12:51:27.884Z,2.10
2023-05-06T12:53:58.554Z,1.17
2023-05-06T12:56:26.961Z,1.87
2023-05-06T12:58:59.891Z,4.20
2023-05-06T13:01:28.277Z,2.00
2023-05-06T13:03:58.137Z,1.43
2023-05-06T13:06:26.551Z,2.37
2023-05-06T13:08:55.104Z,1.23
2023-05-06T13:11:25.842Z,3.23
2023-05-06T13:13:54.198Z,1.67
2023-05-06T13:16:22.790Z,2.13
2023-05-06T13:18:51.221Z,2.00
2023-05-06T13:21:19.563Z,1.63
2023-05-06T13:23:48.388Z,1.67
2023-05-06T13:26:17.816Z,1.20
2023-05-06T13:28:48.463Z,3.80
2023-05-06T13:31:16.878Z,0.83
2023-05-06T13:33:45.161Z,1.53
2023-05-06T13:36:13.510Z,1.67
2023-05-06T13:38:41.940Z,0.97
2023-05-06T13:41:10.237Z,1.30
2023-05-06T13:43:38.968Z,1.40
2023-05-06T13:46:09.669Z,2.03
2023-05-06T13:48:38.384Z,2.73
2023-05-06T13:51:07.028Z,1.93
2023-05-06T13:53:35.720Z,1.60
2023-05-06T13:56:04.667Z,1.70
2023-05-06T13:58:33.171Z,2.47
2023-05-06T14:01:01.610Z,0.93
2023-05-06T14:03:31.436Z,1.50
2023-05-06T14:05:59.774Z,1.47
2023-05-06T14:08:28.059Z,1.33
2023-05-06T14:10:56.342Z,0.83
2023-05-06T14:13:24.887Z,3.37
2023-05-06T14:15:53.361Z,0.97
2023-05-06T14:18:21.693Z,1.20
2023-05-06T14:20:51.393Z,1.50
2023-05-06T14:23:19.810Z,1.47
2023-05-06T14:25:48.115Z,1.53
2023-05-06T14:28:16.657Z,2.63
2023-05-06T14:30:47.525Z,1.10
2023-05-06T14:33:15.840Z,3.63
2023-05-06T14:35:46.087Z,1.80
2023-05-06T14:38:15.893Z,2.80
2023-05-06T14:40:44.244Z,1.87
2023-05-06T14:43:12.588Z,1.67
2023-05-06T14:45:40.978Z,2.30
2023-05-06T14:48:09.458Z,2.73
2023-05-06T14:50:37.843Z,3.03
2023-05-06T14:53:06.534Z,3.00
2023-05-06T14:55:37.528Z,1.87
2023-05-06T14:58:05.893Z,3.13
2023-05-06T15:00:34.461Z,2.47
2023-05-06T15:03:02.844Z,3.13
2023-05-06T15:05:31.474Z,2.90
2023-05-06T15:07:59.803Z,2.87
2023-05-06T15:10:28.251Z,2.83
2023-05-06T15:12:58.051Z,1.97
2023-05-06T15:15:26.434Z,2.50
2023-05-06T15:17:54.784Z,1.57
2023-05-06T15:20:23.248Z,1.43
2023-05-06T15:22:51.458Z,2.50
2023-05-06T15:25:33.510Z,2.20
2023-05-06T15:28:04.931Z,1.50
2023-05-06T15:30:33.404Z,2.20
2023-05-06T15:33:02.871Z,1.90
2023-05-06T15:35:32.220Z,1.37
2023-05-06T15:38:00.486Z,4.70
2023-05-06T15:40:29.335Z,2.57
2023-05-06T15:42:57.747Z,1.83
2023-05-06T15:45:27.666Z,1.37
2023-05-06T15:47:56.324Z,1.43
2023-05-06T15:50:33.372Z,1.10
2023-05-06T15:53:02.870Z,1.30
2023-05-06T15:55:35.244Z,1.37
2023-05-06T15:58:09.752Z,1.40
2023-05-06T16:00:39.412Z,4.90
2023-05-06T16:03:11.576Z,1.80
2023-05-06T16:05:40.907Z,2.37
2023-05-06T16:08:09.166Z,3.60
2023-05-06T16:10:37.536Z,2.63
2023-05-06T16:13:05.918Z,2.50
2023-05-06T16:15:35.479Z,2.67
2023-05-06T16:18:05.407Z,2.80
2023-05-06T16:20:34.447Z,1.87
2023-05-06T16:23:02.906Z,1.77
2023-05-06T16:25:31.283Z,2.00
2023-05-06T16:27:59.615Z,1.90
2023-05-06T16:30:27.857Z,1.93
2023-05-06T16:32:56.193Z,1.67
2023-05-06T16:35:26.112Z,2.63
2023-05-06T16:37:54.463Z,1.33
2023-05-06T16:40:24.219Z,4.07
2023-05-06T16:42:52.754Z,3.40
2023-05-06T16:45:21.092Z,2.23
2023-05-06T16:47:49.687Z,3.93
2023-05-06T16:50:18.184Z,10.27
2023-05-06T16:52:48.573Z,18.27
2023-05-06T16:55:17.184Z,21.20
2023-05-06T16:57:45.568Z,16.00
2023-05-06T17:00:16.516Z,13.10
2023-05-06T17:02:45.120Z,8.97
2023-05-06T17:05:13.842Z,5.87
2023-05-06T17:07:42.293Z,3.50
2023-05-06T17:10:13.253Z,4.10
2023-05-06T17:12:42.897Z,2.70
2023-05-06T17:15:12.396Z,2.87
2023-05-06T17:17:41.243Z,2.87
2023-05-06T17:20:11.233Z,2.60
2023-05-06T17:22:40.060Z,2.30
2023-05-06T17:25:09.173Z,2.53
2023-05-06T17:27:39.128Z,2.80
2023-05-06T17:30:09.733Z,2.97
2023-05-06T17:32:38.342Z,2.50
2023-05-06T17:35:07.775Z,2.27
2023-05-06T17:37:36.359Z,2.07
2023-05-06T17:40:06.958Z,1.80
2023-05-06T17:42:36.041Z,3.00
2023-05-06T17:45:06.389Z,3.53
2023-05-06T17:47:36.097Z,3.57
2023-05-06T17:50:04.854Z,3.10
2023-05-06T17:52:33.192Z,3.20
2023-05-06T17:55:11.797Z,3.20
2023-05-06T17:57:50.313Z,3.83
2023-05-06T18:00:20.488Z,3.83
2023-05-06T18:02:49.052Z,3.60
2023-05-06T18:05:18.626Z,3.87
2023-05-06T18:07:47.671Z,3.67
2023-05-06T18:10:16.030Z,4.00
2023-05-06T18:12:45.412Z,3.57
2023-05-06T18:15:13.942Z,2.80
2023-05-06T18:17:43.713Z,2.97
2023-05-06T18:20:13.459Z,2.30
2023-05-06T18:22:43.002Z,2.43
2023-05-06T18:25:11.978Z,2.50
2023-05-06T18:27:40.704Z,1.77
2023-05-06T18:30:09.742Z,2.33
2023-05-06T18:32:38.106Z,2.20
2023-05-06T18:35:08.656Z,2.20
2023-05-06T18:37:37.305Z,2.73
2023-05-06T18:40:09.055Z,4.27
2023-05-06T18:42:37.429Z,2.20
2023-05-06T18:45:07.333Z,3.97
2023-05-06T18:47:36.997Z,2.90
2023-05-06T18:50:07.714Z,3.10
2023-05-06T18:52:37.685Z,2.80
2023-05-06T18:55:07.510Z,2.63
2023-05-06T18:57:35.931Z,2.60
2023-05-06T19:00:07.171Z,2.77
2023-05-06T19:02:35.558Z,2.53
2023-05-06T19:05:04.072Z,3.27
2023-05-06T19:07:33.801Z,2.40
2023-05-06T19:10:02.142Z,3.20
2023-05-06T19:12:31.580Z,2.90
2023-05-06T19:15:00.112Z,3.17
2023-05-06T19:17:28.746Z,3.93
2023-05-06T19:19:57.105Z,2.80
2023-05-06T19:22:25.465Z,3.13
2023-05-06T19:24:55.433Z,3.10
2023-05-06T19:27:23.978Z,3.27
2023-05-06T19:29:52.449Z,2.80
2023-05-06T19:32:21.028Z,2.80
2023-05-06T19:34:49.378Z,2.97
2023-05-06T19:37:17.704Z,3.27
2023-05-06T19:39:46.634Z,5.80
2023-05-06T19:42:16.420Z,2.73
2023-05-06T19:44:44.770Z,2.93
2023-05-06T19:47:13.301Z,2.50
2023-05-06T19:49:41.594Z,5.33
2023-05-06T19:52:09.949Z,3.10
2023-05-06T19:54:38.301Z,2.97
2023-05-06T19:57:06.664Z,2.80
2023-05-06T19:59:36.449Z,2.60
2023-05-06T20:02:04.873Z,2.33
2023-05-06T20:04:34.273Z,2.40
2023-05-06T20:07:02.632Z,3.73
2023-05-06T20:09:31.078Z,3.30
2023-05-06T20:11:59.623Z,5.17
2023-05-06T20:14:28.098Z,2.40
2023-05-06T20:16:58.599Z,2.43
2023-05-06T20:19:29.445Z,4.00
2023-05-06T20:21:58.550Z,2.37
2023-05-06T20:24:29.497Z,4.00
2023-05-06T20:26:59.008Z,5.30
2023-05-06T20:29:27.353Z,4.40
2023-05-06T20:31:57.201Z,2.40
2023-05-06T20:34:26.085Z,4.00
2023-05-06T20:36:55.311Z,3.50
2023-05-06T20:39:24.058Z,2.70
2023-05-06T20:41:52.347Z,3.30
2023-05-06T20:44:20.884Z,2.70
2023-05-06T20:46:49.306Z,2.57
2023-05-06T20:49:19.770Z,2.90
2023-05-06T20:51:48.114Z,2.40
2023-05-06T20:54:16.403Z,2.00
2023-05-06T20:56:44.910Z,2.53
2023-05-06T20:59:13.280Z,2.43
2023-05-06T21:01:41.759Z,2.80
2023-05-06T21:04:10.106Z,2.60
2023-05-06T21:06:39.962Z,2.60
2023-05-06T21:09:08.324Z,4.40
2023-05-06T21:11:36.753Z,2.73
2023-05-06T21:14:05.099Z,2.93
2023-05-06T21:16:33.476Z,2.37
2023-05-06T21:19:01.944Z,3.00
2023-05-06T21:21:32.527Z,3.30
2023-05-06T21:24:02.827Z,2.37
2023-05-06T21:26:31.617Z,2.70
2023-05-06T21:29:00.041Z,2.67
2023-05-06T21:31:30.154Z,3.23
2023-05-06T21:34:00.130Z,5.47
2023-05-06T21:36:28.526Z,3.07
2023-05-06T21:39:08.087Z,2.90
2023-05-06T21:41:36.669Z,3.80
2023-05-06T21:44:05.716Z,2.80
2023-05-06T21:46:34.981Z,3.03
2023-05-06T21:49:03.462Z,3.20
2023-05-06T21:51:34.137Z,3.10
2023-05-06T21:54:04.520Z,2.80
2023-05-06T21:56:32.948Z,3.53
2023-05-06T21:59:01.287Z,2.97
2023-05-06T22:01:30.065Z,3.30
2023-05-06T22:03:58.494Z,3.40
2023-05-06T22:06:26.832Z,3.83
2023-05-06T22:08:55.416Z,2.90
2023-05-06T22:11:25.178Z,3.27
2023-05-06T22:13:53.568Z,3.10
2023-05-06T22:16:22.097Z,4.67
2023-05-06T22:18:51.926Z,2.83
2023-05-06T22:21:20.285Z,6.20
2023-05-06T22:23:48.635Z,2.93
2023-05-06T22:26:17.062Z,3.87
2023-05-06T22:28:46.740Z,3.80
2023-05-06T22:31:15.586Z,3.93
2023-05-06T22:33:43.933Z,2.77
2023-05-06T22:36:12.330Z,4.40
2023-05-06T22:38:40.826Z,4.50
2023-05-06T22:41:09.238Z,4.43
2023-05-06T22:43:37.544Z,5.50
2023-05-06T22:46:07.810Z,3.60
2023-05-06T22:48:36.192Z,5.10
2023-05-06T22:51:04.690Z,3.50
2023-05-06T22:53:33.799Z,3.83
2023-05-06T22:56:02.251Z,4.00
2023-05-06T22:58:31.616Z,3.37
2023-05-06T23:01:00.026Z,4.07
2023-05-06T23:03:29.893Z,3.23
2023-05-06T23:05:58.731Z,3.33
2023-05-06T23:08:27.262Z,4.87
2023-05-06T23:10:55.912Z,2.80
2023-05-06T23:13:24.545Z,4.47
2023-05-06T23:15:53.113Z,2.93
2023-05-06T23:18:21.741Z,3.40
2023-05-06T23:20:51.412Z,2.53
2023-05-06T23:23:19.729Z,4.20
2023-05-06T23:25:48.069Z,4.53
2023-05-06T23:28:16.429Z,2.93
2023-05-06T23:30:45.038Z,3.10
2023-05-06T23:33:13.436Z,2.80
2023-05-06T23:35:41.921Z,2.70
2023-05-06T23:38:11.726Z,5.00
2023-05-06T23:40:40.177Z,3.97
2023-05-06T23:43:09.935Z,3.10
2023-05-06T23:45:38.564Z,4.10
2023-05-06T23:48:07.743Z,2.70
2023-05-06T23:50:36.079Z,2.70
2023-05-06T23:53:04.774Z,3.40
2023-05-06T23:55:34.604Z,2.83
2023-05-06T23:58:02.968Z,2.80
